Time;durP1;ratioP1;P1;durP2;ratioP2;P2;SDS_P1;SDS_P2;PMS_P1;PMS_P2;Temp;Humidity;BMP_temperature;BMP_pressure;BME280_temperature;BME280_humidity;BME280_pressure;Samples;Min_cycle;Max_cycle;Signal;HPM_P1;HPM_P2
2021/05/17 00:00:09;;;;;;;5.62;4.00;;;;;;;18.05;58.50;98434.64;1775666;79;21514;-41
2021/05/17 00:02:38;;;;;;;7.17;4.47;;;;;;;17.95;58.03;98430.20;1798243;79;21039;-41
2021/05/17 00:05:06;;;;;;;7.00;4.65;;;;;;;17.89;58.46;98429.17;1772463;79;20971;-41
2021/05/17 00:07:35;;;;;;;6.55;4.53;;;;;;;17.87;58.55;98429.59;1778482;79;21055;-41
2021/05/17 00:10:06;;;;;;;7.53;5.12;;;;;;;17.80;58.48;98433.30;1788837;79;21082;-41
2021/05/17 00:12:33;;;;;;;7.92;5.20;;;;;;;17.66;58.86;98436.39;1776467;79;26508;-41
2021/05/17 00:15:00;;;;;;;7.80;4.90;;;;;;;17.52;58.86;98432.59;1770696;81;21015;-41
2021/05/17 00:17:29;;;;;;;9.35;4.92;;;;;;;17.40;58.95;98436.00;1773879;79;20963;-41
2021/05/17 00:19:57;;;;;;;10.08;5.62;;;;;;;17.30;59.35;98436.42;1780112;79;21099;-41
2021/05/17 00:22:25;;;;;;;11.35;5.60;;;;;;;17.20;59.41;98436.66;1768853;79;20992;-40
2021/05/17 00:24:54;;;;;;;10.63;6.15;;;;;;;17.11;59.36;98437.25;1788208;79;20959;-41
2021/05/17 00:27:22;;;;;;;9.45;5.53;;;;;;;17.08;59.46;98440.08;1785902;79;21684;-40
2021/05/17 00:29:51;;;;;;;8.05;5.10;;;;;;;17.07;59.74;98435.19;1802167;79;21711;-41
2021/05/17 00:32:18;;;;;;;11.25;5.42;;;;;;;17.10;59.52;98431.59;1800515;79;21046;-41
2021/05/17 00:34:45;;;;;;;8.53;5.50;;;;;;;17.15;59.55;98437.16;1785564;79;21003;-40
2021/05/17 00:37:14;;;;;;;9.55;5.33;;;;;;;17.19;59.45;98436.48;1770647;81;20947;-41
2021/05/17 00:39:42;;;;;;;13.80;5.80;;;;;;;17.23;59.15;98436.57;1771369;79;21034;-40
2021/05/17 00:42:11;;;;;;;9.40;5.40;;;;;;;17.28;59.44;98437.44;1770684;80;21047;-41
2021/05/17 00:44:40;;;;;;;10.68;5.40;;;;;;;17.34;59.80;98442.59;1770957;79;21696;-41
2021/05/17 00:47:12;;;;;;;10.68;5.55;;;;;;;17.44;60.34;98451.76;1770582;81;20944;-41
2021/05/17 00:49:40;;;;;;;7.17;4.90;;;;;;;17.52;60.21;98447.67;1745333;81;21612;-40
2021/05/17 00:52:10;;;;;;;10.08;5.35;;;;;;;17.54;59.61;98460.92;1772662;79;21620;-41
2021/05/17 00:54:37;;;;;;;10.75;5.62;;;;;;;17.52;59.95;98468.23;1783320;79;20972;-40
2021/05/17 00:57:07;;;;;;;7.83;5.20;;;;;;;17.51;59.58;98479.01;1772006;79;21062;-41
2021/05/17 00:59:35;;;;;;;7.53;4.97;;;;;;;17.54;58.17;98477.37;1770662;81;21592;-41
2021/05/17 01:02:03;;;;;;;7.25;5.53;;;;;;;17.54;58.37;98465.81;1770824;79;20935;-41
2021/05/17 01:04:32;;;;;;;7.92;5.30;;;;;;;17.60;59.51;98454.55;1766985;81;21490;-41
2021/05/17 01:06:59;;;;;;;9.50;5.67;;;;;;;17.66;59.97;98451.47;1787665;79;21031;-41
2021/05/17 01:09:27;;;;;;;13.80;5.53;;;;;;;17.69;60.90;98446.49;1771112;78;21149;-41
2021/05/17 01:11:57;;;;;;;8.95;5.40;;;;;;;17.63;61.11;98442.72;1770918;79;20991;-40
2021/05/17 01:14:25;;;;;;;8.45;4.97;;;;;;;17.60;61.77;98437.33;1770502;81;21043;-40
2021/05/17 01:16:54;;;;;;;9.20;5.47;;;;;;;17.60;62.10;98424.40;1778118;79;20947;-40
2021/05/17 01:19:36;;;;;;;8.35;5.08;;;;;;;17.63;62.24;98419.41;1783565;79;20987;-41
2021/05/17 01:22:22;;;;;;;9.48;5.10;;;;;;;17.65;61.47;98417.03;1773812;79;22209;-40
2021/05/17 01:24:36;;;;;;;6.47;4.72;;;;;;;17.58;61.11;98413.05;1779650;79;21010;-40
2021/05/17 01:27:04;;;;;;;9.75;5.37;;;;;;;17.52;60.62;98406.56;1779322;79;21493;-41
2021/05/17 01:29:31;;;;;;;9.00;5.62;;;;;;;17.49;59.75;98401.15;1792586;79;21066;-40
2021/05/17 01:32:01;;;;;;;11.63;4.92;;;;;;;17.45;59.90;98394.39;1773647;79;21293;-41
2021/05/17 01:34:28;;;;;;;7.80;5.08;;;;;;;17.39;60.17;98395.50;1781837;79;21082;-41
2021/05/17 01:36:55;;;;;;;9.08;4.80;;;;;;;17.30;60.08;98396.70;1742688;81;21039;-41
2021/05/17 01:39:25;;;;;;;6.10;4.40;;;;;;;17.23;59.82;98393.37;1787898;79;21624;-41
2021/05/17 01:41:53;;;;;;;7.10;4.42;;;;;;;17.16;59.64;98397.62;1774019;79;21090;-42
2021/05/17 01:44:24;;;;;;;6.17;4.70;;;;;;;17.08;59.30;98390.78;1770787;79;21641;-41
2021/05/17 01:46:53;;;;;;;6.37;4.62;;;;;;;17.00;59.21;98387.41;1773099;79;21068;-41
2021/05/17 01:49:21;;;;;;;6.03;4.67;;;;;;;16.91;59.53;98375.69;1770578;81;20968;-41
2021/05/17 01:51:49;;;;;;;8.00;4.80;;;;;;;16.86;59.87;98366.61;1770297;79;21522;-41
2021/05/17 01:54:18;;;;;;;7.00;4.20;;;;;;;16.83;59.52;98363.36;1788516;79;21021;-41
2021/05/17 01:56:47;;;;;;;6.03;3.85;;;;;;;16.80;59.29;98356.58;1802393;79;21007;-41
2021/05/17 01:59:32;;;;;;;6.05;3.50;;;;;;;16.76;59.21;98349.82;1765225;79;21721;-41
2021/05/17 02:02:00;;;;;;;6.00;4.03;;;;;;;16.75;58.33;98344.16;1785333;79;21007;-41
2021/05/17 02:04:29;;;;;;;4.40;2.60;;;;;;;16.77;58.09;98344.52;1772165;79;20971;-41
2021/05/17 02:06:56;;;;;;;4.92;3.10;;;;;;;16.83;57.11;98346.94;1770731;79;21597;-41
2021/05/17 02:09:26;;;;;;;4.47;3.10;;;;;;;16.90;57.76;98347.36;1770420;81;21004;-41
2021/05/17 02:11:53;;;;;;;5.05;2.55;;;;;;;16.94;57.63;98343.34;1799334;79;21691;-41
2021/05/17 02:14:28;;;;;;;4.40;2.52;;;;;;;16.98;58.19;98352.09;1713558;82;21059;-41
2021/05/17 02:16:55;;;;;;;6.45;2.50;;;;;;;17.02;58.15;98356.88;1770453;79;20975;-41
2021/05/17 02:19:23;;;;;;;4.72;2.47;;;;;;;17.07;58.85;98356.38;1770645;81;20979;-41
2021/05/17 02:21:51;;;;;;;5.97;2.90;;;;;;;17.12;59.62;98359.38;1742631;79;21058;-41
2021/05/17 02:24:18;;;;;;;5.33;2.95;;;;;;;17.18;60.35;98356.30;1787503;79;21714;-41
2021/05/17 02:26:45;;;;;;;4.08;2.90;;;;;;;17.24;60.47;98351.83;1800960;79;21922;-41
2021/05/17 02:29:13;;;;;;;4.85;2.72;;;;;;;17.33;60.37;98345.78;1798923;79;21569;-41
2021/05/17 02:31:40;;;;;;;3.65;2.83;;;;;;;17.38;60.76;98336.42;1778637;79;21130;-41
2021/05/17 02:34:09;;;;;;;4.50;2.95;;;;;;;17.47;61.23;98335.83;1799927;79;21545;-41
2021/05/17 02:36:36;;;;;;;4.30;2.67;;;;;;;17.50;61.11;98333.59;1795856;79;21695;-41
2021/05/17 02:39:06;;;;;;;5.25;3.10;;;;;;;17.51;61.18;98326.91;1770614;79;21094;-41
2021/05/17 02:41:34;;;;;;;;;;;;;;;17.48;61.32;98321.50;1773025;81;20915;-41
2021/05/17 02:44:02;;;;;;;5.58;3.52;;;;;;;17.40;61.80;98322.30;1732673;81;20251;-41
2021/05/17 02:46:30;;;;;;;5.70;3.12;;;;;;;17.28;62.58;98327.86;1741028;81;21599;-41
2021/05/17 02:48:58;;;;;;;5.28;2.95;;;;;;;17.30;62.92;98328.81;1762771;81;21682;-41
2021/05/17 02:51:24;;;;;;;7.33;3.00;;;;;;;17.29;62.92;98320.41;1740665;81;21955;-41
2021/05/17 02:53:58;;;;;;;5.03;3.10;;;;;;;17.22;63.13;98317.87;1758183;81;20923;-41
2021/05/17 02:56:45;;;;;;;7.17;3.22;;;;;;;17.13;63.66;98319.06;1739500;81;21054;-41
2021/05/17 02:59:12;;;;;;;6.28;2.95;;;;;;;17.04;64.47;98317.53;1751271;81;21591;-41
2021/05/17 03:01:41;;;;;;;7.10;3.47;;;;;;;16.90;65.14;98316.64;1750383;81;21081;-41
2021/05/17 03:04:15;;;;;;;6.47;3.22;;;;;;;16.81;65.53;98313.73;1738095;82;20974;-41
2021/05/17 03:07:04;;;;;;;7.78;3.80;;;;;;;16.73;65.87;98312.36;1748118;81;20979;-41
2021/05/17 03:09:31;;;;;;;7.85;3.92;;;;;;;16.57;66.27;98315.03;1748184;81;21626;-41
2021/05/17 03:12:00;;;;;;;9.68;3.92;;;;;;;16.40;66.67;98306.63;1758743;81;20990;-41
2021/05/17 03:14:29;;;;;;;10.93;4.00;;;;;;;16.31;66.99;98300.95;1738011;82;21898;-41
2021/05/17 03:16:59;;;;;;;6.83;3.67;;;;;;;16.28;67.52;98305.89;1752822;81;21537;-41
2021/05/17 03:19:26;;;;;;;7.28;3.77;;;;;;;16.33;67.77;98293.86;1760993;80;20982;-41
2021/05/17 03:21:56;;;;;;;5.30;3.62;;;;;;;16.38;68.39;98288.48;1757547;81;21560;-41
2021/05/17 03:24:23;;;;;;;3.70;3.12;;;;;;;16.44;68.34;98286.20;1740301;81;20987;-41
2021/05/17 03:26:54;;;;;;;6.20;3.08;;;;;;;16.50;68.36;98288.61;1740121;81;21074;-41
2021/05/17 03:29:21;;;;;;;6.60;3.00;;;;;;;16.58;68.03;98285.14;1751029;81;21014;-41
2021/05/17 03:31:48;;;;;;;6.50;2.98;;;;;;;16.68;67.74;98281.39;1768495;81;21006;-41
2021/05/17 03:34:16;;;;;;;4.62;2.70;;;;;;;16.76;67.68;98271.04;1749975;80;21599;-41
2021/05/17 03:36:45;;;;;;;5.00;2.90;;;;;;;16.85;67.30;98263.77;1738001;80;20982;-41
2021/05/17 03:39:13;;;;;;;3.42;2.58;;;;;;;16.95;66.93;98261.98;1754628;81;21961;-41
2021/05/17 03:41:39;;;;;;;5.60;2.87;;;;;;;17.02;66.61;98258.30;1753040;81;21010;-41
2021/05/17 03:44:07;;;;;;;4.28;2.75;;;;;;;17.08;66.15;98256.59;1763178;79;20992;-41
2021/05/17 03:46:33;;;;;;;3.70;2.80;;;;;;;17.11;65.96;98264.72;1789014;79;21031;-41
2021/05/17 03:49:00;;;;;;;4.33;2.62;;;;;;;17.16;65.70;98257.95;1794976;79;21047;-41
2021/05/17 03:51:27;;;;;;;3.85;2.72;;;;;;;17.23;65.62;98247.56;1765626;79;21569;-41
2021/05/17 03:53:53;;;;;;;4.85;3.08;;;;;;;17.28;65.51;98251.78;1766596;79;20944;-41
2021/05/17 03:56:20;;;;;;;4.78;2.87;;;;;;;17.30;65.66;98248.77;1764404;80;21039;-41
2021/05/17 03:58:47;;;;;;;4.12;2.77;;;;;;;17.33;65.42;98247.16;1765865;79;21059;-41
2021/05/17 04:01:16;;;;;;;6.55;3.42;;;;;;;17.38;65.47;98239.75;1771787;79;20968;-41
2021/05/17 04:03:43;;;;;;;3.67;3.20;;;;;;;17.39;65.78;98233.84;1787273;79;21435;-41
2021/05/17 04:06:22;;;;;;;5.62;3.30;;;;;;;17.38;66.13;98232.91;1766435;79;20998;-41
2021/05/17 04:14:15;;;;;;;7.37;4.10;;;;;;;17.29;66.91;98247.23;1788351;79;20995;-41
2021/05/17 04:16:44;;;;;;;5.67;3.52;;;;;;;17.18;67.41;98262.41;1777487;79;20979;-41
2021/05/17 04:19:12;;;;;;;8.23;4.05;;;;;;;17.27;67.46;98266.08;1786709;79;21581;-41
2021/05/17 04:21:40;;;;;;;11.90;3.55;;;;;;;17.33;67.61;98262.22;1773185;79;21299;-41
2021/05/17 04:24:10;;;;;;;5.83;3.45;;;;;;;17.39;67.73;98264.59;1780076;79;20909;-41
2021/05/17 04:26:37;;;;;;;6.80;3.92;;;;;;;17.45;67.62;98263.47;1788235;79;21059;-41
2021/05/17 04:29:04;;;;;;;5.20;3.45;;;;;;;17.39;68.07;98256.36;1774746;79;21576;-41
2021/05/17 04:31:31;;;;;;;6.05;3.47;;;;;;;17.35;67.79;98252.36;1779794;78;21698;-41
2021/05/17 04:33:58;;;;;;;5.53;3.05;;;;;;;17.33;67.87;98247.90;1776213;79;20943;-41
2021/05/17 04:36:27;;;;;;;4.10;2.70;;;;;;;17.30;68.08;98235.67;1783861;79;20933;-41
2021/05/17 04:38:53;;;;;;;3.52;2.40;;;;;;;17.28;68.18;98236.72;1767610;79;21541;-41
2021/05/17 04:41:20;;;;;;;4.47;2.72;;;;;;;17.34;67.71;98226.75;1771086;79;21086;-41
2021/05/17 04:43:47;;;;;;;7.50;2.95;;;;;;;17.39;67.62;98226.23;1796747;79;21026;-41
2021/05/17 04:46:13;;;;;;;4.03;2.80;;;;;;;17.37;67.85;98225.31;1792313;79;20904;-41
2021/05/17 04:48:49;;;;;;;6.20;3.17;;;;;;;17.33;67.91;98229.34;1780447;79;21720;-41
2021/05/17 04:51:08;;;;;;;6.12;2.95;;;;;;;17.25;68.63;98235.59;1770305;79;21011;-41
2021/05/17 04:53:35;;;;;;;6.67;3.25;;;;;;;17.22;68.42;98235.70;1801193;79;21047;-41
2021/05/17 04:56:02;;;;;;;3.85;3.05;;;;;;;17.27;68.46;98244.77;1776472;79;21597;-41
2021/05/17 04:58:28;;;;;;;3.95;3.15;;;;;;;17.27;69.06;98250.23;1774654;79;21034;-41
2021/05/17 05:00:55;;;;;;;4.42;3.00;;;;;;;17.25;69.26;98259.47;1785295;79;21036;-41
2021/05/17 05:03:22;;;;;;;5.97;3.40;;;;;;;17.27;69.30;98268.81;1763412;79;22118;-41
2021/05/17 05:05:49;;;;;;;5.83;3.50;;;;;;;17.29;69.21;98267.00;1779810;79;21725;-41
2021/05/17 05:08:16;;;;;;;4.58;3.52;;;;;;;17.30;68.99;98261.70;1774761;79;20940;-41
2021/05/17 05:10:43;;;;;;;5.55;3.83;;;;;;;17.25;69.41;98256.73;1779053;79;21105;-41
2021/05/17 05:13:09;;;;;;;6.65;3.85;;;;;;;17.20;69.09;98242.97;1770689;81;21018;-41
2021/05/17 05:15:36;;;;;;;7.10;3.77;;;;;;;17.19;69.11;98255.70;1787974;79;21556;-41
2021/05/17 05:18:03;;;;;;;8.50;5.10;;;;;;;17.22;68.96;98250.16;1786057;79;21634;-41
2021/05/17 05:20:31;;;;;;;7.03;4.20;;;;;;;17.23;68.83;98244.09;1773428;79;21007;-41
2021/05/17 05:22:58;;;;;;;7.65;4.50;;;;;;;17.19;68.48;98246.89;1759432;79;21070;-41
2021/05/17 05:25:29;;;;;;;7.90;4.55;;;;;;;17.18;68.32;98249.48;1782890;79;21055;-41
2021/05/17 05:27:57;;;;;;;8.78;4.25;;;;;;;17.17;67.97;98245.80;1776976;79;21624;-41
2021/05/17 05:30:41;;;;;;;5.70;3.90;;;;;;;17.17;67.84;98241.09;1778168;79;21064;-41
2021/05/17 05:33:08;;;;;;;4.53;3.77;;;;;;;17.24;68.10;98238.16;1790059;79;21014;-41
2021/05/17 05:35:24;;;;;;;6.35;3.58;;;;;;;17.30;67.64;98226.85;1773848;79;21003;-40
2021/05/17 05:37:53;;;;;;;7.08;3.83;;;;;;;17.29;67.62;98236.86;1783568;79;20967;-40
2021/05/17 05:40:20;;;;;;;8.15;4.00;;;;;;;17.30;67.47;98230.96;1771458;79;21556;-40
2021/05/17 05:42:46;;;;;;;5.28;3.60;;;;;;;17.34;67.43;98222.64;1773103;79;21074;-40
2021/05/17 05:45:13;;;;;;;4.97;3.33;;;;;;;17.39;67.28;98218.78;1736568;80;21569;-40
2021/05/17 05:47:40;;;;;;;5.10;3.47;;;;;;;17.45;67.13;98227.25;1737786;81;21067;-40
2021/05/17 05:50:10;;;;;;;6.75;3.98;;;;;;;17.50;67.30;98230.83;1725964;83;21098;-40
2021/05/17 05:52:37;;;;;;;6.90;4.35;;;;;;;17.50;67.23;98234.17;1735651;81;20995;-40
2021/05/17 05:55:06;;;;;;;7.55;3.70;;;;;;;17.45;67.23;98225.87;1718434;82;21858;-40
2021/05/17 05:57:38;;;;;;;5.83;3.72;;;;;;;17.41;67.18;98212.88;1714772;82;20952;-40
2021/05/17 06:00:01;;;;;;;8.98;3.60;;;;;;;17.38;67.29;98202.17;1720537;82;21534;-40
2021/05/17 06:02:27;;;;;;;6.67;3.60;;;;;;;17.43;67.28;98194.64;1724830;82;21091;-40
2021/05/17 06:04:56;;;;;;;6.78;3.70;;;;;;;17.53;67.06;98188.84;1717661;82;21100;-40
2021/05/17 06:07:22;;;;;;;5.70;3.50;;;;;;;17.59;67.04;98180.30;1775691;79;21231;-40
2021/05/17 06:09:49;;;;;;;6.08;3.80;;;;;;;17.64;66.98;98171.55;1779135;79;21054;-40
2021/05/17 06:12:19;;;;;;;4.83;3.17;;;;;;;17.74;66.95;98169.10;1784533;79;20944;-40
2021/05/17 06:14:48;;;;;;;4.53;3.17;;;;;;;17.84;66.75;98163.14;1777993;79;21019;-40
2021/05/17 06:17:16;;;;;;;;;;;;;;;17.92;66.81;98157.59;1781943;79;21070;-41
2021/05/17 06:19:44;;;;;;;2.95;2.65;;;;;;;18.01;66.33;98151.48;1772787;79;21039;-41
2021/05/17 06:22:11;;;;;;;4.15;2.50;;;;;;;18.07;66.21;98163.42;1780342;79;21035;-41
2021/05/17 06:24:39;;;;;;;4.85;2.52;;;;;;;18.13;65.82;98152.08;1769339;79;21026;-41
2021/05/17 06:27:08;;;;;;;2.60;2.20;;;;;;;18.17;65.61;98151.36;1780937;79;21090;-41
2021/05/17 06:29:36;;;;;;;2.72;2.30;;;;;;;18.21;65.31;98139.67;1771181;79;20952;-41
2021/05/17 06:32:02;;;;;;;2.52;2.30;;;;;;;18.27;65.16;98142.03;1777962;79;21029;-41
2021/05/17 06:34:30;;;;;;;2.45;2.17;;;;;;;18.26;64.79;98133.63;1781459;79;20992;-41
2021/05/17 06:36:57;;;;;;;3.83;2.45;;;;;;;18.24;64.80;98123.72;1790918;79;20999;-42
2021/05/17 06:39:23;;;;;;;3.55;2.40;;;;;;;18.27;64.85;98117.34;1787599;79;21131;-41
2021/05/17 06:41:51;;;;;;;3.08;2.50;;;;;;;18.33;65.08;98112.08;1772542;79;21537;-42
2021/05/17 06:44:19;;;;;;;3.20;2.45;;;;;;;18.32;65.09;98108.56;1779577;79;21616;-42
2021/05/17 06:46:45;;;;;;;3.08;2.37;;;;;;;18.31;65.05;98098.02;1764261;81;20987;-41
2021/05/17 06:49:13;;;;;;;3.87;2.65;;;;;;;18.33;65.04;98089.52;1775908;79;20923;-41
2021/05/17 06:51:40;;;;;;;5.35;2.60;;;;;;;18.30;64.71;98086.27;1764914;79;20981;-41
2021/05/17 06:54:09;;;;;;;5.17;2.60;;;;;;;18.32;64.57;98089.35;1764417;79;21689;-41
2021/05/17 06:59:00;;;;;;;2.70;2.50;;;;;;;18.34;64.85;98104.78;1830832;78;22653;-41
2021/05/17 07:01:29;;;;;;;3.30;2.45;;;;;;;18.23;65.23;98126.30;1783681;79;21057;-41
2021/05/17 07:03:57;;;;;;;3.00;2.17;;;;;;;18.21;64.90;98136.93;1775640;79;21659;-41
2021/05/17 07:06:29;;;;;;;5.25;2.75;;;;;;;18.16;64.95;98155.30;1791403;79;21054;-41
2021/05/17 07:11:49;;;;;;;4.12;2.30;;;;;;;18.20;65.25;98160.10;1775909;79;20920;-41
2021/05/17 07:14:14;;;;;;;11.70;2.83;;;;;;;18.23;65.10;98167.45;1780164;79;21586;-41
2021/05/17 07:16:41;;;;;;;5.72;2.67;;;;;;;18.25;65.01;98165.78;1776834;79;20978;-41
2021/05/17 07:19:08;;;;;;;4.12;2.52;;;;;;;18.23;64.88;98168.81;1757606;80;20978;-41
2021/05/17 07:24:21;;;;;;;4.35;2.52;;;;;;;18.13;65.24;98191.85;1770298;79;21378;-41
2021/05/17 07:26:49;;;;;;;5.05;2.60;;;;;;;18.11;65.22;98182.68;1769195;81;21026;-41
2021/05/17 07:29:17;;;;;;;3.58;2.45;;;;;;;18.11;65.44;98166.83;1768851;81;21037;-41
2021/05/17 07:31:44;;;;;;;4.65;2.80;;;;;;;18.06;65.46;98153.66;1766128;80;21116;-41
2021/05/17 07:34:11;;;;;;;4.58;2.98;;;;;;;17.98;66.03;98146.86;1772760;80;20987;-41
2021/05/17 07:36:39;;;;;;;5.80;3.33;;;;;;;17.88;66.42;98153.43;1743300;81;21002;-41
2021/05/17 07:39:08;;;;;;;5.25;3.30;;;;;;;17.79;66.85;98145.86;1770869;80;21537;-41
2021/05/17 07:41:35;;;;;;;5.12;3.02;;;;;;;17.79;67.15;98143.89;1772265;80;21672;-41
2021/05/17 07:44:03;;;;;;;6.92;3.40;;;;;;;17.84;67.22;98150.03;1775492;80;20975;-41
2021/05/17 07:46:30;;;;;;;5.25;3.00;;;;;;;17.98;67.03;98153.11;1775650;80;22274;-41
2021/05/17 07:51:31;;;;;;;3.70;3.10;;;;;;;18.28;66.82;98171.02;1732168;80;21034;-41
2021/05/17 07:53:58;;;;;;;5.90;3.30;;;;;;;18.39;66.42;98186.55;1770055;80;21069;-41
2021/05/17 07:56:25;;;;;;;2.58;2.37;;;;;;;18.50;66.07;98187.56;1769269;81;21070;-41
2021/05/17 07:58:53;;;;;;;5.55;2.40;;;;;;;18.58;65.73;98181.45;1761906;81;21584;-41
2021/05/17 08:01:20;;;;;;;6.05;2.58;;;;;;;18.64;65.43;98163.80;1764480;81;21038;-41
2021/05/17 08:03:47;;;;;;;3.65;2.77;;;;;;;18.64;65.32;98167.91;1763370;80;21090;-41
2021/05/17 08:06:15;;;;;;;3.62;2.67;;;;;;;18.63;65.34;98174.04;1765019;81;21675;-41
2021/05/17 08:08:42;;;;;;;4.53;2.60;;;;;;;18.65;65.32;98172.20;1762718;80;21058;-41
2021/05/17 08:11:08;;;;;;;3.83;2.62;;;;;;;18.64;65.07;98178.90;1761060;81;21512;-41
2021/05/17 08:13:36;;;;;;;4.60;2.72;;;;;;;18.64;64.53;98184.39;1761505;81;21158;-41
2021/05/17 08:16:06;;;;;;;4.62;2.80;;;;;;;18.66;64.67;98185.50;1762625;81;20991;-41
2021/05/17 08:18:34;;;;;;;5.08;3.33;;;;;;;18.66;64.92;98192.96;1747738;81;21056;-41
2021/05/17 08:21:02;;;;;;;4.00;3.10;;;;;;;18.66;64.89;98182.75;1760317;81;21541;-41
2021/05/17 08:23:28;;;;;;;5.22;3.02;;;;;;;18.68;65.56;98185.06;1760729;81;20992;-41
2021/05/17 08:25:57;;;;;;;3.58;2.40;;;;;;;18.76;65.60;98175.38;1752962;80;21014;-41
2021/05/17 08:28:24;;;;;;;4.50;2.60;;;;;;;18.87;65.79;98170.91;1757770;81;20940;-41
2021/05/17 08:30:55;;;;;;;4.65;2.70;;;;;;;18.97;64.94;98166.44;1762184;81;21078;-41
2021/05/17 08:33:22;;;;;;;4.45;2.67;;;;;;;19.05;64.56;98166.34;1759347;80;21073;-41
2021/05/17 08:35:49;;;;;;;3.35;2.60;;;;;;;19.11;63.92;98174.79;1763548;81;20991;-41
2021/05/17 08:38:17;;;;;;;2.87;2.45;;;;;;;19.12;63.59;98186.55;1758971;80;21529;-41
2021/05/17 08:40:46;;;;;;;5.08;3.08;;;;;;;19.13;63.51;98190.20;1760525;81;20952;-41
2021/05/17 08:43:13;;;;;;;3.80;2.60;;;;;;;19.15;63.18;98196.64;1761063;81;21081;-41
2021/05/17 08:45:40;;;;;;;5.12;2.40;;;;;;;19.12;63.12;98199.69;1760163;81;21026;-41
2021/05/17 08:48:08;;;;;;;3.25;2.33;;;;;;;19.11;62.76;98202.27;1764449;80;21629;-41
2021/05/17 08:50:36;;;;;;;4.97;2.65;;;;;;;19.14;63.06;98203.34;1764525;81;21071;-42
2021/05/17 08:53:03;;;;;;;4.50;2.70;;;;;;;19.16;63.32;98198.95;1763538;81;21099;-41
2021/05/17 08:55:30;;;;;;;4.42;3.00;;;;;;;19.20;63.28;98203.72;1760495;81;22149;-41
2021/05/17 08:57:57;;;;;;;3.45;3.00;;;;;;;19.20;63.21;98205.69;1757622;80;21600;-41
2021/05/17 09:00:24;;;;;;;5.47;3.20;;;;;;;19.17;63.30;98214.20;1758616;81;20919;-41
2021/05/17 09:02:52;;;;;;;3.52;2.83;;;;;;;19.14;63.54;98222.57;1763668;80;21007;-41
2021/05/17 09:05:23;;;;;;;3.20;2.90;;;;;;;19.13;63.65;98214.94;1762645;81;21690;-41
2021/05/17 09:07:56;;;;;;;4.17;2.35;;;;;;;19.13;63.47;98219.05;1758200;81;21061;-41
2021/05/17 09:10:25;;;;;;;5.22;2.90;;;;;;;19.18;63.52;98217.72;1762006;81;21061;-41
2021/05/17 09:13:10;;;;;;;2.87;2.62;;;;;;;19.20;63.69;98206.46;1760815;81;21023;-41
2021/05/17 09:15:48;;;;;;;4.33;3.02;;;;;;;19.19;63.87;98203.55;1762901;81;20948;-41
2021/05/17 09:18:17;;;;;;;3.12;2.80;;;;;;;19.21;64.26;98207.23;1754174;81;21097;-41
2021/05/17 09:20:46;;;;;;;;;;;;;;;19.17;64.31;98202.47;1766193;81;21074;-41
2021/05/17 09:23:27;;;;;;;4.95;3.05;;;;;;;19.16;64.42;98208.56;1764105;81;20247;-41
2021/05/17 09:26:13;;;;;;;4.65;2.95;;;;;;;19.04;64.58;98203.86;1761166;81;21680;-41
2021/05/17 09:28:48;;;;;;;7.62;2.45;;;;;;;19.10;64.49;98193.86;1737466;81;21312;-41
2021/05/17 09:31:18;;;;;;;3.47;2.17;;;;;;;19.22;64.40;98190.28;1762878;81;20921;-41
2021/05/17 09:33:52;;;;;;;3.67;2.37;;;;;;;19.31;64.19;98180.77;1764145;81;21706;-41
2021/05/17 09:36:39;;;;;;;5.40;2.58;;;;;;;19.36;63.87;98195.91;1764107;81;20960;-41
2021/05/17 09:39:10;;;;;;;3.65;2.10;;;;;;;19.40;63.59;98197.32;1764235;81;20991;-41
2021/05/17 09:41:46;;;;;;;3.85;2.60;;;;;;;19.36;63.34;98198.05;1766024;81;21138;-41
2021/05/17 09:44:22;;;;;;;4.40;2.05;;;;;;;19.31;63.58;98205.50;1761807;81;20924;-41
2021/05/17 09:47:01;;;;;;;2.65;2.10;;;;;;;19.28;63.55;98204.99;1733588;82;21071;-41
2021/05/17 09:49:37;;;;;;;2.65;2.15;;;;;;;19.32;63.63;98197.99;1753468;81;21035;-41
2021/05/17 09:52:34;;;;;;;3.65;2.05;;;;;;;19.25;63.24;98201.77;1764175;81;20972;-41
2021/05/17 09:55:11;;;;;;;3.85;1.82;;;;;;;19.22;63.26;98198.52;1733464;82;21026;-41
2021/05/17 09:57:41;;;;;;;5.53;1.92;;;;;;;19.22;62.94;98201.27;1746285;81;21019;-43
2021/05/17 10:00:25;;;;;;;5.58;1.92;;;;;;;19.20;63.10;98200.97;1761448;81;21068;-41
2021/05/17 10:02:53;;;;;;;3.72;2.17;;;;;;;19.17;63.09;98195.60;1738749;80;20943;-41
2021/05/17 10:05:29;;;;;;;2.47;1.95;;;;;;;19.14;63.10;98195.09;1739306;82;21604;-41
2021/05/17 10:08:05;;;;;;;3.02;2.00;;;;;;;19.09;63.40;98187.59;1750140;80;21745;-41
2021/05/17 10:10:33;;;;;;;3.05;2.20;;;;;;;19.08;63.53;98196.27;1762907;81;21014;-41
2021/05/17 10:13:03;;;;;;;4.40;2.40;;;;;;;19.07;63.79;98196.13;1776112;79;21132;-41
2021/05/17 10:15:33;;;;;;;4.58;2.50;;;;;;;19.05;63.79;98196.56;1770016;81;21030;-41
2021/05/17 10:18:00;;;;;;;3.80;2.20;;;;;;;19.03;63.93;98203.09;1768188;80;20998;-41
2021/05/17 10:20:29;;;;;;;7.75;2.87;;;;;;;19.04;64.00;98201.12;1747385;81;21627;-41
2021/05/17 10:22:57;;;;;;;5.55;2.95;;;;;;;19.05;63.81;98199.91;1754641;80;20999;-41
2021/05/17 10:25:29;;;;;;;7.70;2.52;;;;;;;19.03;63.86;98200.95;1757984;81;21024;-41
2021/05/17 10:28:00;;;;;;;5.80;2.40;;;;;;;19.09;64.09;98196.44;1767668;80;21078;-41
2021/05/17 10:30:31;;;;;;;6.05;2.42;;;;;;;19.12;63.71;98188.70;1773799;79;21034;-41
2021/05/17 10:33:03;;;;;;;3.45;2.20;;;;;;;19.14;63.93;98188.23;1765154;80;21631;-41
2021/05/17 10:35:48;;;;;;;5.15;2.87;;;;;;;19.13;63.75;98181.97;1764092;80;21025;-41
2021/05/17 10:41:48;;;;;;;2.27;2.00;;;;;;;19.09;64.02;98146.98;1762543;81;21063;-41
2021/05/17 10:46:53;;;;;;;2.15;1.92;;;;;;;19.11;64.40;98101.98;1769955;81;21018;-42
2021/05/17 10:49:34;;;;;;;;;;;;;;;19.14;64.56;98078.34;1772463;80;21019;-42
2021/05/17 10:52:10;;;;;;;4.90;1.90;;;;;;;19.18;64.47;98072.87;1767935;80;21089;-42
2021/05/17 10:54:41;;;;;;;3.40;2.40;;;;;;;19.05;64.97;98057.07;1766412;80;21067;-42
2021/05/17 10:57:33;;;;;;;2.72;2.20;;;;;;;19.13;65.24;98059.71;1767030;80;20979;-42
2021/05/17 11:02:43;;;;;;;2.70;2.33;;;;;;;19.17;64.85;98074.72;1777898;80;21636;-42
2021/05/17 11:05:20;;;;;;;2.85;2.00;;;;;;;19.18;65.00;98077.00;1740887;82;21107;-42
2021/05/17 11:07:51;;;;;;;3.40;2.60;;;;;;;19.20;65.11;98072.44;1741175;81;21571;-42
2021/05/17 11:10:25;;;;;;;4.25;2.35;;;;;;;19.13;65.05;98076.20;1722902;83;20991;-42
2021/05/17 11:13:20;;;;;;;3.47;2.00;;;;;;;19.10;65.50;98081.98;1722757;82;21759;-42
2021/05/17 11:15:56;;;;;;;1.80;1.70;;;;;;;19.12;65.61;98087.65;1718057;82;21580;-42
2021/05/17 11:18:38;;;;;;;3.02;1.95;;;;;;;19.12;65.80;98089.80;1721105;82;21078;-42
2021/05/17 11:21:28;;;;;;;4.50;2.05;;;;;;;19.16;65.73;98089.05;1715189;83;20951;-42
2021/05/17 11:24:05;;;;;;;4.70;2.10;;;;;;;19.17;65.55;98091.94;1720481;83;21667;-42
2021/05/17 11:26:35;;;;;;;3.15;2.00;;;;;;;19.18;65.75;98087.22;1722054;82;21034;-42
2021/05/17 11:29:04;;;;;;;3.87;2.25;;;;;;;19.30;65.79;98084.42;1719300;82;21690;-42
2021/05/17 11:31:42;;;;;;;2.77;2.00;;;;;;;19.49;65.33;98075.09;1721037;82;21394;-42
2021/05/17 11:34:14;;;;;;;2.35;1.85;;;;;;;19.73;64.28;98075.36;1722562;82;21038;-42
2021/05/17 11:36:50;;;;;;;3.25;1.87;;;;;;;20.05;63.85;98064.47;1721610;82;21121;-42
2021/05/17 11:39:22;;;;;;;3.47;1.95;;;;;;;20.31;62.82;98069.92;1722882;83;20967;-42
2021/05/17 11:42:01;;;;;;;3.80;1.92;;;;;;;20.53;62.39;98062.14;1722524;83;21047;-42
2021/05/17 11:45:09;;;;;;;2.77;2.10;;;;;;;20.76;60.54;98054.69;1719637;82;21553;-42
2021/05/17 11:47:28;;;;;;;3.27;2.27;;;;;;;20.94;59.96;98061.56;1720347;83;21632;-42
2021/05/17 11:49:56;;;;;;;2.65;1.80;;;;;;;21.21;59.03;98067.06;1721495;83;21647;-42
2021/05/17 11:52:30;;;;;;;2.77;2.00;;;;;;;21.57;58.98;98067.61;1722613;82;21003;-42
2021/05/17 11:54:59;;;;;;;3.12;2.05;;;;;;;21.97;57.95;98069.33;1722801;83;20999;-42
2021/05/17 11:57:33;;;;;;;2.85;1.80;;;;;;;22.31;56.44;98065.32;1723282;83;21047;-43
2021/05/17 12:00:10;;;;;;;2.77;1.80;;;;;;;22.55;55.18;98066.08;1689363;84;20983;-43
2021/05/17 12:02:48;;;;;;;2.62;1.70;;;;;;;22.60;54.12;98065.43;1687370;85;21003;-42
2021/05/17 12:05:15;;;;;;;3.92;2.05;;;;;;;22.53;54.63;98061.02;1686470;85;20951;-42
2021/05/17 12:07:47;;;;;;;4.35;1.77;;;;;;;22.46;53.79;98058.59;1684633;83;21588;-43
2021/05/17 12:10:15;;;;;;;1.47;1.37;;;;;;;22.31;53.22;98063.94;1715920;83;21762;-42